sensor_id;sensor_type;location;lat;lon;timestamp;pressure;altitude;pressure_sealevel;temperature;humidity
21086;BME280;34247;50.064;19.970;2023-05-09T00:01:12;100374.69;;;8.26;78.75
21086;BME280;34247;50.064;19.970;2023-05-09T00:02:17;100372.13;;;8.23;78.87
21086;BME280;34247;50.064;19.970;2023-05-09T00:03:21;100372.13;;;8.23;78.87
21086;BME280;34247;50.064;19.970;2023-05-09T00:04:25;100370.50;;;8.20;79.14
21086;BME280;34247;50.064;19.970;2023-05-09T00:05:29;100368.81;;;8.18;79.00
21086;BME280;34247;50.064;19.970;2023-05-09T00:06:33;100370.66;;;8.16;79.46
21086;BME280;34247;50.064;19.970;2023-05-09T00:07:38;100371.59;;;8.15;79.60
21086;BME280;34247;50.064;19.970;2023-05-09T00:08:43;100369.13;;;8.10;79.53
21086;BME280;34247;50.064;19.970;2023-05-09T00:09:47;100372.78;;;8.08;79.87
21086;BME280;34247;50.064;19.970;2023-05-09T00:10:54;100358.56;;;8.10;79.87
21086;BME280;34247;50.064;19.970;2023-05-09T00:11:58;100367.25;;;8.14;79.85
21086;BME280;34247;50.064;19.970;2023-05-09T00:13:02;100365.44;;;8.14;79.43
21086;BME280;34247;50.064;19.970;2023-05-09T00:14:10;100366.56;;;8.09;79.70
21086;BME280;34247;50.064;19.970;2023-05-09T00:15:16;100363.13;;;8.07;79.96
21086;BME280;34247;50.064;19.970;2023-05-09T00:16:21;100365.88;;;8.03;79.91
21086;BME280;34247;50.064;19.970;2023-05-09T00:17:27;100361.81;;;7.95;81.09
21086;BME280;34247;50.064;19.970;2023-05-09T00:18:31;100361.72;;;7.98;80.84
21086;BME280;34247;50.064;19.970;2023-05-09T00:19:36;100361.75;;;7.96;80.98
21086;BME280;34247;50.064;19.970;2023-05-09T00:20:41;100360.91;;;7.96;81.03
21086;BME280;34247;50.064;19.970;2023-05-09T00:21:47;100364.69;;;7.90;81.46
21086;BME280;34247;50.064;19.970;2023-05-09T00:22:51;100361.16;;;7.90;81.08
21086;BME280;34247;50.064;19.970;2023-05-09T00:23:59;100359.31;;;7.92;81.32
21086;BME280;34247;50.064;19.970;2023-05-09T00:25:09;100363.06;;;7.86;81.78
21086;BME280;34247;50.064;19.970;2023-05-09T00:26:15;100360.41;;;7.86;81.85
21086;BME280;34247;50.064;19.970;2023-05-09T00:27:19;100353.25;;;7.90;81.74
21086;BME280;34247;50.064;19.970;2023-05-09T00:28:24;100352.41;;;7.88;81.67
21086;BME280;34247;50.064;19.970;2023-05-09T00:29:27;100356.91;;;7.86;81.74
21086;BME280;34247;50.064;19.970;2023-05-09T00:30:32;100351.81;;;7.81;81.82
21086;BME280;34247;50.064;19.970;2023-05-09T00:31:38;100354.50;;;7.80;82.07
21086;BME280;34247;50.064;19.970;2023-05-09T00:32:42;100355.44;;;7.79;81.96
21086;BME280;34247;50.064;19.970;2023-05-09T00:33:54;100359.25;;;7.71;82.80
21086;BME280;34247;50.064;19.970;2023-05-09T00:35:05;100354.09;;;7.68;83.20
21086;BME280;34247;50.064;19.970;2023-05-09T00:36:20;100349.78;;;7.66;82.85
21086;BME280;34247;50.064;19.970;2023-05-09T00:37:25;100353.28;;;7.66;82.84
21086;BME280;34247;50.064;19.970;2023-05-09T00:38:31;100352.47;;;7.64;83.34
21086;BME280;34247;50.064;19.970;2023-05-09T00:39:39;100355.06;;;7.66;82.80
21086;BME280;34247;50.064;19.970;2023-05-09T00:40:44;100350.75;;;7.63;83.39
21086;BME280;34247;50.064;19.970;2023-05-09T00:41:48;100355.25;;;7.61;83.27
21086;BME280;34247;50.064;19.970;2023-05-09T00:42:52;100352.63;;;7.61;83.11
21086;BME280;34247;50.064;19.970;2023-05-09T00:44:00;100349.97;;;7.61;83.45
21086;BME280;34247;50.064;19.970;2023-05-09T00:45:06;100351.75;;;7.61;83.46
21086;BME280;34247;50.064;19.970;2023-05-09T00:46:12;100347.50;;;7.57;83.51
21086;BME280;34247;50.064;19.970;2023-05-09T00:47:17;100343.31;;;7.51;84.21
21086;BME280;34247;50.064;19.970;2023-05-09T00:48:21;100347.72;;;7.51;84.15
21086;BME280;34247;50.064;19.970;2023-05-09T00:49:25;100345.94;;;7.51;84.19
21086;BME280;34247;50.064;19.970;2023-05-09T00:50:30;100348.78;;;7.46;84.10
21086;BME280;34247;50.064;19.970;2023-05-09T00:51:37;100347.00;;;7.47;84.27
21086;BME280;34247;50.064;19.970;2023-05-09T00:52:41;100343.38;;;7.50;83.90
21086;BME280;34247;50.064;19.970;2023-05-09T00:53:45;100348.66;;;7.50;84.13
21086;BME280;34247;50.064;19.970;2023-05-09T00:54:54;100346.16;;;7.46;84.01
21086;BME280;34247;50.064;19.970;2023-05-09T00:55:59;100341.75;;;7.45;84.03
21086;BME280;34247;50.064;19.970;2023-05-09T00:57:06;100340.00;;;7.46;84.24
21086;BME280;34247;50.064;19.970;2023-05-09T00:58:12;100345.44;;;7.41;84.40
21086;BME280;34247;50.064;19.970;2023-05-09T00:59:17;100350.66;;;7.43;84.39
21086;BME280;34247;50.064;19.970;2023-05-09T01:00:23;100343.66;;;7.42;84.03
21086;BME280;34247;50.064;19.970;2023-05-09T01:01:28;100342.00;;;7.39;84.02
21086;BME280;34247;50.064;19.970;2023-05-09T01:02:33;100345.44;;;7.41;84.09
21086;BME280;34247;50.064;19.970;2023-05-09T01:03:40;100347.31;;;7.39;83.97
21086;BME280;34247;50.064;19.970;2023-05-09T01:04:45;100346.53;;;7.36;84.31
21086;BME280;34247;50.064;19.970;2023-05-09T01:08:09;100348.38;;;7.34;84.70
21086;BME280;34247;50.064;19.970;2023-05-09T01:09:41;100344.06;;;7.31;84.86
21086;BME280;34247;50.064;19.970;2023-05-09T01:11:23;100350.56;;;7.23;84.90
21086;BME280;34247;50.064;19.970;2023-05-09T01:13:05;100349.06;;;7.15;85.71
21086;BME280;34247;50.064;19.970;2023-05-09T01:16:05;100341.38;;;7.09;85.68
21086;BME280;34247;50.064;19.970;2023-05-09T01:18:48;100345.69;;;7.12;85.46
21086;BME280;34247;50.064;19.970;2023-05-09T01:20:13;100344.06;;;7.08;85.57
21086;BME280;34247;50.064;19.970;2023-05-09T01:21:25;100344.19;;;7.05;85.86
21086;BME280;34247;50.064;19.970;2023-05-09T01:22:33;100349.63;;;7.00;86.38
21086;BME280;34247;50.064;19.970;2023-05-09T01:25:56;100330.44;;;6.97;86.51
21086;BME280;34247;50.064;19.970;2023-05-09T01:28:14;100343.84;;;6.90;87.13
21086;BME280;34247;50.064;19.970;2023-05-09T01:30:25;100341.22;;;6.90;87.06
21086;BME280;34247;50.064;19.970;2023-05-09T01:31:33;100336.84;;;6.89;87.21
21086;BME280;34247;50.064;19.970;2023-05-09T01:32:42;100340.28;;;6.91;86.73
21086;BME280;34247;50.064;19.970;2023-05-09T01:34:02;100334.25;;;6.88;86.86
21086;BME280;34247;50.064;19.970;2023-05-09T01:35:13;100333.38;;;6.87;87.19
21086;BME280;34247;50.064;19.970;2023-05-09T01:36:20;100332.50;;;6.88;86.99
21086;BME280;34247;50.064;19.970;2023-05-09T01:37:35;100333.34;;;6.89;87.06
21086;BME280;34247;50.064;19.970;2023-05-09T01:38:43;100330.81;;;6.86;87.15
21086;BME280;34247;50.064;19.970;2023-05-09T01:39:52;100331.59;;;6.88;86.77
21086;BME280;34247;50.064;19.970;2023-05-09T01:40:58;100338.78;;;6.84;86.93
21086;BME280;34247;50.064;19.970;2023-05-09T01:42:06;100329.94;;;6.85;86.67
21086;BME280;34247;50.064;19.970;2023-05-09T01:43:15;100330.88;;;6.84;86.93
21086;BME280;34247;50.064;19.970;2023-05-09T01:44:23;100335.50;;;6.78;87.03
21086;BME280;34247;50.064;19.970;2023-05-09T01:45:28;100338.94;;;6.80;87.20
21086;BME280;34247;50.064;19.970;2023-05-09T01:46:35;100342.56;;;6.77;87.20
21086;BME280;34247;50.064;19.970;2023-05-09T01:47:41;100333.84;;;6.75;87.14
21086;BME280;34247;50.064;19.970;2023-05-09T01:48:51;100338.13;;;6.78;87.29
21086;BME280;34247;50.064;19.970;2023-05-09T01:49:56;100327.66;;;6.76;86.94
21086;BME280;34247;50.064;19.970;2023-05-09T01:51:01;100332.13;;;6.74;87.32
21086;BME280;34247;50.064;19.970;2023-05-09T01:52:14;100331.50;;;6.66;87.79
21086;BME280;34247;50.064;19.970;2023-05-09T01:53:22;100322.22;;;6.56;88.96
21086;BME280;34247;50.064;19.970;2023-05-09T01:54:28;100323.94;;;6.57;88.63
21086;BME280;34247;50.064;19.970;2023-05-09T01:55:36;100320.50;;;6.55;88.49
21086;BME280;34247;50.064;19.970;2023-05-09T01:56:43;100326.34;;;6.63;88.70
21086;BME280;34247;50.064;19.970;2023-05-09T01:57:49;100327.28;;;6.62;87.84
21086;BME280;34247;50.064;19.970;2023-05-09T01:58:56;100332.56;;;6.62;88.18
21086;BME280;34247;50.064;19.970;2023-05-09T02:00:02;100332.56;;;6.62;87.90
21086;BME280;34247;50.064;19.970;2023-05-09T02:01:14;100334.50;;;6.57;87.90
21086;BME280;34247;50.064;19.970;2023-05-09T02:02:20;100329.41;;;6.51;88.34
21086;BME280;34247;50.064;19.970;2023-05-09T02:03:24;100333.75;;;6.53;88.65
21086;BME280;34247;50.064;19.970;2023-05-09T02:04:30;100331.09;;;6.53;88.35
21086;BME280;34247;50.064;19.970;2023-05-09T02:05:36;100339.88;;;6.54;88.58
21086;BME280;34247;50.064;19.970;2023-05-09T02:06:42;100333.69;;;6.55;88.40
21086;BME280;34247;50.064;19.970;2023-05-09T02:07:48;100325.94;;;6.50;88.58
21086;BME280;34247;50.064;19.970;2023-05-09T02:08:52;100325.91;;;6.52;88.87
21086;BME280;34247;50.064;19.970;2023-05-09T02:09:59;100321.50;;;6.51;88.97
21086;BME280;34247;50.064;19.970;2023-05-09T02:11:03;100326.78;;;6.51;88.93
21086;BME280;34247;50.064;19.970;2023-05-09T02:12:08;100318.88;;;6.51;88.88
21086;BME280;34247;50.064;19.970;2023-05-09T02:13:12;100316.19;;;6.52;88.91
21086;BME280;34247;50.064;19.970;2023-05-09T02:14:16;100319.72;;;6.51;88.62
21086;BME280;34247;50.064;19.970;2023-05-09T02:15:21;100322.34;;;6.53;88.79
21086;BME280;34247;50.064;19.970;2023-05-09T02:16:26;100323.25;;;6.52;88.87
21086;BME280;34247;50.064;19.970;2023-05-09T02:17:31;100319.63;;;6.54;88.74
21086;BME280;34247;50.064;19.970;2023-05-09T02:18:35;100320.50;;;6.55;88.46
21086;BME280;34247;50.064;19.970;2023-05-09T02:19:39;100325.91;;;6.52;88.53
21086;BME280;34247;50.064;19.970;2023-05-09T02:20:43;100319.78;;;6.50;88.42
21086;BME280;34247;50.064;19.970;2023-05-09T02:21:50;100320.63;;;6.52;88.57
21086;BME280;34247;50.064;19.970;2023-05-09T02:22:54;100321.63;;;6.48;88.79
21086;BME280;34247;50.064;19.970;2023-05-09T02:23:59;100317.97;;;6.52;88.79
21086;BME280;34247;50.064;19.970;2023-05-09T02:25:06;100325.00;;;6.51;88.55
21086;BME280;34247;50.064;19.970;2023-05-09T02:26:12;100319.00;;;6.48;88.59
21086;BME280;34247;50.064;19.970;2023-05-09T02:27:18;100321.75;;;6.45;88.68
21086;BME280;34247;50.064;19.970;2023-05-09T02:28:28;100318.22;;;6.44;88.83
21086;BME280;34247;50.064;19.970;2023-05-09T02:29:42;100325.28;;;6.44;88.56
21086;BME280;34247;50.064;19.970;2023-05-09T02:30:51;100323.56;;;6.43;88.75
21086;BME280;34247;50.064;19.970;2023-05-09T02:31:57;100313.00;;;6.43;88.70
21086;BME280;34247;50.064;19.970;2023-05-09T02:33:07;100320.06;;;6.42;89.10
21086;BME280;34247;50.064;19.970;2023-05-09T02:34:13;100321.13;;;6.36;89.00
21086;BME280;34247;50.064;19.970;2023-05-09T02:35:19;100317.69;;;6.34;89.27
21086;BME280;34247;50.064;19.970;2023-05-09T02:36:25;100319.31;;;6.39;89.10
21086;BME280;34247;50.064;19.970;2023-05-09T02:37:31;100319.41;;;6.35;89.00
21086;BME280;34247;50.064;19.970;2023-05-09T02:38:36;100315.84;;;6.36;89.04
21086;BME280;34247;50.064;19.970;2023-05-09T02:39:41;100322.97;;;6.34;88.97
21086;BME280;34247;50.064;19.970;2023-05-09T02:40:46;100317.91;;;6.28;89.49
21086;BME280;34247;50.064;19.970;2023-05-09T02:41:54;100325.13;;;6.23;89.76
21086;BME280;34247;50.064;19.970;2023-05-09T02:42:59;100324.09;;;6.27;89.80
21086;BME280;34247;50.064;19.970;2023-05-09T02:44:03;100322.38;;;6.26;89.65
21086;BME280;34247;50.064;19.970;2023-05-09T02:45:08;100319.66;;;6.28;89.47
21086;BME280;34247;50.064;19.970;2023-05-09T02:46:15;100318.09;;;6.22;89.72
21086;BME280;34247;50.064;19.970;2023-05-09T02:47:19;100318.00;;;6.25;89.63
21086;BME280;34247;50.064;19.970;2023-05-09T02:48:23;100321.59;;;6.23;89.95
21086;BME280;34247;50.064;19.970;2023-05-09T02:49:28;100318.09;;;6.22;89.61
21086;BME280;34247;50.064;19.970;2023-05-09T02:50:35;100313.09;;;6.15;90.25
21086;BME280;34247;50.064;19.970;2023-05-09T02:51:42;100318.34;;;6.15;90.46
21086;BME280;34247;50.064;19.970;2023-05-09T02:52:46;100319.19;;;6.17;90.40
21086;BME280;34247;50.064;19.970;2023-05-09T02:53:50;100318.22;;;6.19;90.33
21086;BME280;34247;50.064;19.970;2023-05-09T02:54:58;100320.91;;;6.18;89.95
21086;BME280;34247;50.064;19.970;2023-05-09T02:56:03;100314.00;;;6.14;89.91
21086;BME280;34247;50.064;19.970;2023-05-09T02:57:07;100315.84;;;6.12;90.29
21086;BME280;34247;50.064;19.970;2023-05-09T02:58:14;100323.81;;;6.10;90.60
21086;BME280;34247;50.064;19.970;2023-05-09T02:59:18;100320.25;;;6.11;90.77
21086;BME280;34247;50.064;19.970;2023-05-09T03:00:23;100320.97;;;6.16;90.35
21086;BME280;34247;50.064;19.970;2023-05-09T03:01:29;100322.63;;;6.19;90.19
21086;BME280;34247;50.064;19.970;2023-05-09T03:02:35;100325.25;;;6.19;90.45
21086;BME280;34247;50.064;19.970;2023-05-09T03:03:39;100321.81;;;6.17;90.23
21086;BME280;34247;50.064;19.970;2023-05-09T03:04:44;100320.97;;;6.16;90.20
21086;BME280;34247;50.064;19.970;2023-05-09T03:05:49;100324.41;;;6.18;89.96
21086;BME280;34247;50.064;19.970;2023-05-09T03:06:53;100316.38;;;6.21;89.64
21086;BME280;34247;50.064;19.970;2023-05-09T03:07:57;100321.81;;;6.17;89.76
21086;BME280;34247;50.064;19.970;2023-05-09T03:09:04;100325.31;;;6.17;89.83
21086;BME280;34247;50.064;19.970;2023-05-09T03:10:09;100325.25;;;6.19;89.92
21086;BME280;34247;50.064;19.970;2023-05-09T03:11:16;100320.13;;;6.14;90.16
21086;BME280;34247;50.064;19.970;2023-05-09T03:12:20;100320.09;;;6.16;90.28
21086;BME280;34247;50.064;19.970;2023-05-09T03:13:25;100320.97;;;6.16;90.04
21086;BME280;34247;50.064;19.970;2023-05-09T03:14:29;100325.25;;;6.19;90.06
21086;BME280;34247;50.064;19.970;2023-05-09T03:15:33;100318.28;;;6.18;89.98
21086;BME280;34247;50.064;19.970;2023-05-09T03:16:37;100326.25;;;6.15;89.78
21086;BME280;34247;50.064;19.970;2023-05-09T03:17:41;100321.00;;;6.15;90.03
21086;BME280;34247;50.064;19.970;2023-05-09T03:18:45;100318.34;;;6.16;89.83
21086;BME280;34247;50.064;19.970;2023-05-09T03:19:49;100320.06;;;6.17;89.33
21086;BME280;34247;50.064;19.970;2023-05-09T03:20:53;100321.97;;;6.12;89.66
21086;BME280;34247;50.064;19.970;2023-05-09T03:21:57;100325.53;;;6.11;89.82
21086;BME280;34247;50.064;19.970;2023-05-09T03:23:01;100322.78;;;6.14;89.75
21086;BME280;34247;50.064;19.970;2023-05-09T03:24:06;100327.19;;;6.14;89.83
21086;BME280;34247;50.064;19.970;2023-05-09T03:25:10;100330.03;;;6.07;89.99
21086;BME280;34247;50.064;19.970;2023-05-09T03:26:14;100328.31;;;6.06;90.45
21086;BME280;34247;50.064;19.970;2023-05-09T03:27:18;100325.59;;;6.08;90.14
21086;BME280;34247;50.064;19.970;2023-05-09T03:28:22;100314.19;;;6.07;90.10
21086;BME280;34247;50.064;19.970;2023-05-09T03:29:26;100326.50;;;6.08;90.36
21086;BME280;34247;50.064;19.970;2023-05-09T03:30:31;100319.47;;;6.07;90.44
21086;BME280;34247;50.064;19.970;2023-05-09T03:31:35;100320.66;;;5.99;91.25
21086;BME280;34247;50.064;19.970;2023-05-09T03:32:39;100326.63;;;6.04;91.23
21086;BME280;34247;50.064;19.970;2023-05-09T03:33:46;100325.66;;;6.06;91.00
21086;BME280;34247;50.064;19.970;2023-05-09T03:34:49;100327.56;;;6.03;90.85
21086;BME280;34247;50.064;19.970;2023-05-09T03:35:54;100322.28;;;6.03;91.05
21086;BME280;34247;50.064;19.970;2023-05-09T03:36:59;100326.72;;;6.01;91.10
21086;BME280;34247;50.064;19.970;2023-05-09T03:38:03;100324.09;;;6.01;91.50
21086;BME280;34247;50.064;19.970;2023-05-09T03:39:11;100320.44;;;6.05;91.11
21086;BME280;34247;50.064;19.970;2023-05-09T03:40:16;100333.78;;;6.00;91.13
21086;BME280;34247;50.064;19.970;2023-05-09T03:41:24;100323.09;;;6.05;91.17
21086;BME280;34247;50.064;19.970;2023-05-09T03:42:28;100324.09;;;6.01;91.28
21086;BME280;34247;50.064;19.970;2023-05-09T03:43:32;100323.22;;;6.00;90.85
21086;BME280;34247;50.064;19.970;2023-05-09T03:44:36;100326.72;;;6.01;91.30
21086;BME280;34247;50.064;19.970;2023-05-09T03:45:42;100325.84;;;6.02;91.05
21086;BME280;34247;50.064;19.970;2023-05-09T03:46:46;100324.97;;;6.01;90.95
21086;BME280;34247;50.064;19.970;2023-05-09T03:47:51;100322.34;;;6.01;91.03
21086;BME280;34247;50.064;19.970;2023-05-09T03:48:55;100327.56;;;6.03;91.08
21086;BME280;34247;50.064;19.970;2023-05-09T03:50:00;100324.94;;;6.03;91.24
21086;BME280;34247;50.064;19.970;2023-05-09T03:51:04;100330.25;;;6.01;91.73
21086;BME280;34247;50.064;19.970;2023-05-09T03:52:09;100331.13;;;6.00;91.86
21086;BME280;34247;50.064;19.970;2023-05-09T03:53:13;100332.06;;;5.99;91.88
21086;BME280;34247;50.064;19.970;2023-05-09T03:54:17;100327.63;;;6.00;91.81
21086;BME280;34247;50.064;19.970;2023-05-09T03:55:21;100333.69;;;6.03;91.73
21086;BME280;34247;50.064;19.970;2023-05-09T03:56:29;100334.41;;;6.08;91.72
21086;BME280;34247;50.064;19.970;2023-05-09T03:57:34;100328.22;;;6.10;91.48
21086;BME280;34247;50.064;19.970;2023-05-09T03:58:41;100335.22;;;6.11;91.58
21086;BME280;34247;50.064;19.970;2023-05-09T03:59:45;100332.50;;;6.12;91.83
21086;BME280;34247;50.064;19.970;2023-05-09T04:00:50;100330.66;;;6.16;91.73
21086;BME280;34247;50.064;19.970;2023-05-09T04:01:54;100329.69;;;6.18;91.67
21086;BME280;34247;50.064;19.970;2023-05-09T04:02:58;100324.56;;;6.14;91.90
21086;BME280;34247;50.064;19.970;2023-05-09T04:04:06;100331.47;;;6.18;92.16
21086;BME280;34247;50.064;19.970;2023-05-09T04:05:10;100329.56;;;6.21;92.06
21086;BME280;34247;50.064;19.970;2023-05-09T04:06:15;100332.00;;;6.27;91.91
21086;BME280;34247;50.064;19.970;2023-05-09T04:07:19;100331.94;;;6.29;91.82
21086;BME280;34247;50.064;19.970;2023-05-09T04:08:23;100336.22;;;6.33;91.68
21086;BME280;34247;50.064;19.970;2023-05-09T04:09:27;100329.88;;;6.39;91.48
21086;BME280;34247;50.064;19.970;2023-05-09T04:10:32;100324.59;;;6.39;91.09
21086;BME280;34247;50.064;19.970;2023-05-09T04:11:37;100326.19;;;6.43;91.23
21086;BME280;34247;50.064;19.970;2023-05-09T04:12:46;100329.66;;;6.45;91.06
21086;BME280;34247;50.064;19.970;2023-05-09T04:13:50;100331.19;;;6.50;90.57
21086;BME280;34247;50.064;19.970;2023-05-09T04:14:55;100324.13;;;6.51;90.55
21086;BME280;34247;50.064;19.970;2023-05-09T04:15:58;100320.66;;;6.50;90.53
21086;BME280;34247;50.064;19.970;2023-05-09T04:17:04;100320.63;;;6.52;90.43
21086;BME280;34247;50.064;19.970;2023-05-09T04:18:07;100325.91;;;6.52;90.35
21086;BME280;34247;50.064;19.970;2023-05-09T04:19:12;100325.97;;;6.49;90.99
21086;BME280;34247;50.064;19.970;2023-05-09T04:20:16;100325.97;;;6.49;90.96
21086;BME280;34247;50.064;19.970;2023-05-09T04:21:20;100326.69;;;6.54;90.71
21086;BME280;34247;50.064;19.970;2023-05-09T04:22:26;100324.97;;;6.53;90.81
21086;BME280;34247;50.064;19.970;2023-05-09T04:23:33;100325.78;;;6.55;90.92
21086;BME280;34247;50.064;19.970;2023-05-09T04:24:37;100316.03;;;6.57;91.08
21086;BME280;34247;50.064;19.970;2023-05-09T04:25:41;100319.44;;;6.59;90.72
21086;BME280;34247;50.064;19.970;2023-05-09T04:26:45;100322.84;;;6.62;90.76
21086;BME280;34247;50.064;19.970;2023-05-09T04:27:50;100325.50;;;6.62;90.81
21086;BME280;34247;50.064;19.970;2023-05-09T04:28:54;100322.84;;;6.62;91.09
21086;BME280;34247;50.064;19.970;2023-05-09T04:29:58;100323.72;;;6.63;91.28
21086;BME280;34247;50.064;19.970;2023-05-09T04:31:02;100320.00;;;6.69;91.35
21086;BME280;34247;50.064;19.970;2023-05-09T04:32:07;100327.88;;;6.70;91.56
21086;BME280;34247;50.064;19.970;2023-05-09T04:33:14;100329.50;;;6.74;90.90
21086;BME280;34247;50.064;19.970;2023-05-09T04:34:18;100325.09;;;6.73;91.55
21086;BME280;34247;50.064;19.970;2023-05-09T04:35:22;100323.28;;;6.75;91.64
21086;BME280;34247;50.064;19.970;2023-05-09T04:36:26;100322.25;;;6.79;91.88
21086;BME280;34247;50.064;19.970;2023-05-09T04:37:31;100322.16;;;6.82;91.45
21086;BME280;34247;50.064;19.970;2023-05-09T04:38:35;100327.25;;;6.87;91.26
21086;BME280;34247;50.064;19.970;2023-05-09T04:39:39;100316.47;;;6.93;91.08
21086;BME280;34247;50.064;19.970;2023-05-09T04:40:44;100316.47;;;6.93;91.17
21086;BME280;34247;50.064;19.970;2023-05-09T04:41:48;100317.16;;;6.98;90.74
21086;BME280;34247;50.064;19.970;2023-05-09T04:42:53;100319.66;;;7.03;90.96
21086;BME280;34247;50.064;19.970;2023-05-09T04:43:59;100321.22;;;7.07;90.66
21086;BME280;34247;50.064;19.970;2023-05-09T04:45:05;100320.50;;;7.03;91.45
21086;BME280;34247;50.064;19.970;2023-05-09T04:46:11;100318.59;;;7.07;91.75
21086;BME280;34247;50.064;19.970;2023-05-09T04:47:15;100322.00;;;7.10;91.16
21086;BME280;34247;50.064;19.970;2023-05-09T04:48:19;100322.84;;;7.11;90.95
21086;BME280;34247;50.064;19.970;2023-05-09T04:49:24;100319.00;;;7.19;90.67
21086;BME280;34247;50.064;19.970;2023-05-09T04:50:29;100322.28;;;7.26;90.76
21086;BME280;34247;50.064;19.970;2023-05-09T04:51:33;100323.06;;;7.28;90.32
21086;BME280;34247;50.064;19.970;2023-05-09T04:52:37;100323.63;;;7.36;90.49
21086;BME280;34247;50.064;19.970;2023-05-09T04:53:42;100323.47;;;7.41;90.26
21086;BME280;34247;50.064;19.970;2023-05-09T04:54:48;100320.53;;;7.49;89.98
21086;BME280;34247;50.064;19.970;2023-05-09T04:55:53;100321.78;;;7.60;89.67
21086;BME280;34247;50.064;19.970;2023-05-09T04:56:57;100326.81;;;7.68;89.32
21086;BME280;34247;50.064;19.970;2023-05-09T04:58:19;100319.06;;;7.85;89.54
21086;BME280;34247;50.064;19.970;2023-05-09T04:59:32;100324.63;;;7.99;88.66
21086;BME280;34247;50.064;19.970;2023-05-09T05:00:36;100324.94;;;8.14;88.33
21086;BME280;34247;50.064;19.970;2023-05-09T05:01:40;100327.97;;;8.25;87.14
21086;BME280;34247;50.064;19.970;2023-05-09T05:02:44;100318.50;;;8.41;86.65
21086;BME280;34247;50.064;19.970;2023-05-09T05:03:49;100327.69;;;8.53;85.01
21086;BME280;34247;50.064;19.970;2023-05-09T05:04:56;100329.72;;;8.67;84.56
21086;BME280;34247;50.064;19.970;2023-05-09T05:06:14;100317.59;;;8.81;84.04
21086;BME280;34247;50.064;19.970;2023-05-09T05:07:18;100325.84;;;8.94;82.95
21086;BME280;34247;50.064;19.970;2023-05-09T05:08:22;100315.78;;;9.02;82.04
21086;BME280;34247;50.064;19.970;2023-05-09T05:09:28;100309.78;;;9.18;81.55
21086;BME280;34247;50.064;19.970;2023-05-09T05:10:35;100320.47;;;9.35;81.62
21086;BME280;34247;50.064;19.970;2023-05-09T05:11:39;100311.22;;;9.44;79.97
21086;BME280;34247;50.064;19.970;2023-05-09T05:12:59;100301.50;;;9.61;80.27
21086;BME280;34247;50.064;19.970;2023-05-09T05:14:06;100303.75;;;9.71;78.96
21086;BME280;34247;50.064;19.970;2023-05-09T05:15:11;100305.56;;;9.87;78.90
21086;BME280;34247;50.064;19.970;2023-05-09T05:16:15;100307.38;;;10.04;78.22
21086;BME280;34247;50.064;19.970;2023-05-09T05:17:19;100305.06;;;10.15;77.45
21086;BME280;34247;50.064;19.970;2023-05-09T05:18:24;100304.31;;;10.31;76.69
21086;BME280;34247;50.064;19.970;2023-05-09T05:19:28;100306.16;;;10.46;75.42
21086;BME280;34247;50.064;19.970;2023-05-09T05:20:32;100307.00;;;10.64;75.36
21086;BME280;34247;50.064;19.970;2023-05-09T05:21:36;100309.88;;;10.76;74.67
21086;BME280;34247;50.064;19.970;2023-05-09T05:22:40;100307.53;;;10.70;72.04
21086;BME280;34247;50.064;19.970;2023-05-09T05:23:43;100302.97;;;10.90;73.49
21086;BME280;34247;50.064;19.970;2023-05-09T05:24:48;100304.66;;;11.08;73.69
21086;BME280;34247;50.064;19.970;2023-05-09T05:25:52;100298.94;;;11.31;73.05
21086;BME280;34247;50.064;19.970;2023-05-09T05:26:55;100305.88;;;11.50;71.78
21086;BME280;34247;50.064;19.970;2023-05-09T05:28:00;100308.63;;;11.64;71.00
21086;BME280;34247;50.064;19.970;2023-05-09T05:29:03;100305.72;;;11.69;69.85
21086;BME280;34247;50.064;19.970;2023-05-09T05:30:08;100304.16;;;11.80;69.01
21086;BME280;34247;50.064;19.970;2023-05-09T05:31:13;100305.97;;;11.96;68.74
21086;BME280;34247;50.064;19.970;2023-05-09T05:32:19;100306.72;;;11.98;67.46
21086;BME280;34247;50.064;19.970;2023-05-09T05:33:26;100302.16;;;12.00;67.65
21086;BME280;34247;50.064;19.970;2023-05-09T05:34:30;100306.78;;;12.12;67.47
21086;BME280;34247;50.064;19.970;2023-05-09T05:35:33;100303.38;;;12.10;66.47
21086;BME280;34247;50.064;19.970;2023-05-09T05:36:38;100307.69;;;12.27;66.50
21086;BME280;34247;50.064;19.970;2023-05-09T05:37:42;100304.66;;;12.33;65.80
21086;BME280;34247;50.064;19.970;2023-05-09T05:38:51;100311.91;;;12.45;66.11
21086;BME280;34247;50.064;19.970;2023-05-09T05:39:55;100307.00;;;12.53;65.26
21086;BME280;34247;50.064;19.970;2023-05-09T05:40:59;100299.56;;;12.58;65.21
21086;BME280;34247;50.064;19.970;2023-05-09T05:42:04;100305.00;;;12.71;64.92
21086;BME280;34247;50.064;19.970;2023-05-09T05:43:08;100295.59;;;12.80;63.99
21086;BME280;34247;50.064;19.970;2023-05-09T05:44:12;100301.69;;;12.96;63.52
21086;BME280;34247;50.064;19.970;2023-05-09T05:45:16;100288.28;;;13.12;64.31
21086;BME280;34247;50.064;19.970;2023-05-09T05:46:20;100297.59;;;13.19;63.19
21086;BME280;34247;50.064;19.970;2023-05-09T05:47:26;100290.47;;;13.34;62.96
21086;BME280;34247;50.064;19.970;2023-05-09T05:48:33;100291.94;;;13.52;62.52
21086;BME280;34247;50.064;19.970;2023-05-09T05:49:37;100295.38;;;13.54;61.46
21086;BME280;34247;50.064;19.970;2023-05-09T05:50:41;100291.28;;;13.63;61.61
21086;BME280;34247;50.064;19.970;2023-05-09T05:51:45;100295.25;;;13.70;60.90
21086;BME280;34247;50.064;19.970;2023-05-09T05:52:50;100292.38;;;13.73;61.89
21086;BME280;34247;50.064;19.970;2023-05-09T05:53:54;100295.34;;;13.95;61.81
21086;BME280;34247;50.064;19.970;2023-05-09T05:54:58;100291.63;;;13.98;60.70